createdAt,value
2023-05-05T00:00:38.818Z,4.25
2023-05-05T00:03:26.399Z,4.93
2023-05-05T00:06:13.444Z,4.10
2023-05-05T00:09:00.575Z,4.53
2023-05-05T00:11:47.584Z,4.10
2023-05-05T00:14:34.611Z,4.55
2023-05-05T00:17:21.715Z,4.22
2023-05-05T00:20:09.945Z,3.83
2023-05-05T00:22:57.314Z,4.28
2023-05-05T00:25:44.439Z,4.13
2023-05-05T00:28:31.492Z,3.97
2023-05-05T00:31:19.201Z,4.43
2023-05-05T00:34:06.427Z,4.25
2023-05-05T00:36:53.913Z,3.97
2023-05-05T00:39:40.980Z,4.70
2023-05-05T00:42:37.707Z,3.78
2023-05-05T00:45:25.319Z,3.72
2023-05-05T00:48:12.644Z,4.45
2023-05-05T00:50:59.843Z,4.90
2023-05-05T00:53:50.878Z,4.10
2023-05-05T00:56:38.176Z,4.88
2023-05-05T00:59:25.866Z,4.40
2023-05-05T01:02:13.464Z,4.25
2023-05-05T01:05:01.148Z,4.07
2023-05-05T01:08:06.775Z,4.65
2023-05-05T01:11:01.169Z,4.28
2023-05-05T01:13:52.521Z,4.43
2023-05-05T01:16:55.852Z,4.70
2023-05-05T01:20:01.697Z,4.55
2023-05-05T01:22:56.912Z,4.15
2023-05-05T01:26:08.384Z,4.45
2023-05-05T01:29:22.888Z,4.63
2023-05-05T01:32:12.857Z,4.20
2023-05-05T01:35:09.995Z,4.32
2023-05-05T01:38:05.601Z,4.93
2023-05-05T01:41:03.618Z,4.38
2023-05-05T01:43:52.607Z,4.68
2023-05-05T01:46:39.620Z,4.55
2023-05-05T01:49:28.472Z,4.55
2023-05-05T01:52:16.636Z,4.70
2023-05-05T01:55:04.590Z,5.00
2023-05-05T01:57:54.557Z,4.75
2023-05-05T02:00:42.905Z,5.57
2023-05-05T02:03:32.087Z,4.70
2023-05-05T02:06:21.634Z,4.78
2023-05-05T02:09:11.774Z,4.93
2023-05-05T02:12:00.738Z,4.50
2023-05-05T02:14:48.611Z,4.47
2023-05-05T02:17:35.726Z,4.22
2023-05-05T02:20:24.779Z,4.13
2023-05-05T02:23:12.155Z,4.65
2023-05-05T02:26:07.959Z,4.13
2023-05-05T02:29:14.640Z,4.40
2023-05-05T02:32:14.182Z,3.92
2023-05-05T02:35:09.191Z,4.38
2023-05-05T02:38:05.455Z,4.25
2023-05-05T02:40:59.126Z,4.55
2023-05-05T02:43:49.270Z,4.93
2023-05-05T02:46:38.837Z,4.75
2023-05-05T02:49:26.062Z,4.68
2023-05-05T02:52:18.211Z,4.05
2023-05-05T02:55:06.482Z,4.72
2023-05-05T02:58:06.512Z,4.07
2023-05-05T03:01:42.115Z,4.55
2023-05-05T03:04:38.255Z,4.47
2023-05-05T03:07:30.611Z,4.95
2023-05-05T03:10:21.711Z,5.00
2023-05-05T03:13:16.863Z,5.00
2023-05-05T03:16:07.285Z,5.13
2023-05-05T03:18:56.852Z,4.75
2023-05-05T03:21:44.451Z,5.18
2023-05-05T03:24:31.476Z,5.57
2023-05-05T03:27:26.033Z,5.10
2023-05-05T03:30:13.412Z,5.05
2023-05-05T03:33:08.764Z,5.07
2023-05-05T03:35:56.478Z,6.25
2023-05-05T03:38:43.614Z,5.43
2023-05-05T03:41:30.666Z,5.28
2023-05-05T03:44:17.874Z,4.85
2023-05-05T03:47:05.192Z,4.70
2023-05-05T03:49:54.625Z,5.10
2023-05-05T03:52:41.779Z,5.50
2023-05-05T03:55:28.827Z,5.80
2023-05-05T03:58:16.514Z,5.15
2023-05-05T04:01:04.950Z,5.68
2023-05-05T04:03:52.198Z,5.28
2023-05-05T04:06:40.281Z,5.68
2023-05-05T04:09:27.709Z,5.15
2023-05-05T04:12:14.822Z,5.13
2023-05-05T04:15:02.035Z,4.93
2023-05-05T04:17:49.506Z,5.03
2023-05-05T04:20:36.992Z,5.35
2023-05-05T04:23:24.179Z,4.90
2023-05-05T04:26:11.617Z,5.10
2023-05-05T04:28:58.795Z,4.80
2023-05-05T04:31:46.349Z,5.05
2023-05-05T04:34:33.553Z,4.93
2023-05-05T04:37:21.060Z,5.28
2023-05-05T04:40:09.356Z,5.20
2023-05-05T04:42:57.922Z,5.78
2023-05-05T04:45:55.767Z,5.00
2023-05-05T04:48:46.932Z,5.32
2023-05-05T04:51:34.583Z,5.20
2023-05-05T04:54:22.084Z,7.57
2023-05-05T04:57:09.142Z,7.78
2023-05-05T04:59:57.080Z,9.10
2023-05-05T05:02:44.263Z,8.15
2023-05-05T05:05:31.433Z,5.93
2023-05-05T05:08:18.827Z,5.97
2023-05-05T05:11:06.370Z,5.57
2023-05-05T05:13:53.528Z,6.72
2023-05-05T05:16:40.561Z,6.28
2023-05-05T05:19:28.864Z,7.20
2023-05-05T05:22:15.950Z,10.32
2023-05-05T05:25:04.511Z,6.38
2023-05-05T05:28:02.222Z,6.57
2023-05-05T05:30:57.596Z,6.47
2023-05-05T05:33:45.150Z,6.05
2023-05-05T05:36:34.067Z,7.45
2023-05-05T05:39:21.836Z,6.50
2023-05-05T05:42:08.907Z,5.75
2023-05-05T05:44:58.393Z,5.70
2023-05-05T05:47:45.959Z,25.88
2023-05-05T05:50:33.199Z,7.35
2023-05-05T05:53:22.470Z,6.47
2023-05-05T05:56:10.647Z,7.13
2023-05-05T05:58:58.323Z,5.53
2023-05-05T06:01:45.371Z,4.95
2023-05-05T06:04:32.611Z,5.20
2023-05-05T06:07:20.618Z,5.53
2023-05-05T06:10:25.894Z,5.20
2023-05-05T06:13:19.381Z,5.25
2023-05-05T06:16:10.047Z,5.18
2023-05-05T06:18:58.857Z,5.70
2023-05-05T06:21:45.922Z,5.07
2023-05-05T06:24:33.137Z,5.10
2023-05-05T06:27:20.653Z,5.03
2023-05-05T06:30:09.398Z,5.63
2023-05-05T06:32:56.869Z,5.25
2023-05-05T06:35:43.963Z,4.72
2023-05-05T06:38:31.008Z,5.38
2023-05-05T06:41:18.247Z,5.30
2023-05-05T06:44:05.519Z,4.78
2023-05-05T06:46:53.729Z,4.90
2023-05-05T06:49:40.772Z,5.18
2023-05-05T06:52:27.814Z,5.47
2023-05-05T06:55:14.789Z,4.53
2023-05-05T06:58:02.131Z,5.03
2023-05-05T07:00:49.189Z,5.13
2023-05-05T07:03:36.246Z,4.72
2023-05-05T07:06:23.445Z,4.78
2023-05-05T07:09:10.513Z,4.50
2023-05-05T07:11:57.528Z,4.47
2023-05-05T07:14:45.966Z,4.63
2023-05-05T07:17:33.079Z,4.70
2023-05-05T07:20:20.141Z,5.07
2023-05-05T07:23:07.182Z,4.93
2023-05-05T07:25:55.071Z,4.95
2023-05-05T07:28:43.112Z,5.05
2023-05-05T07:31:30.397Z,4.65
2023-05-05T07:34:17.442Z,4.75
2023-05-05T07:37:05.127Z,5.25
2023-05-05T07:39:52.120Z,4.03
2023-05-05T07:42:39.274Z,4.72
2023-05-05T07:45:26.650Z,4.88
2023-05-05T07:48:13.652Z,4.53
2023-05-05T07:51:00.754Z,4.68
2023-05-05T07:53:47.828Z,4.13
2023-05-05T07:56:34.911Z,4.30
2023-05-05T07:59:22.150Z,5.32
2023-05-05T08:02:12.548Z,5.28
2023-05-05T08:04:59.610Z,4.80
2023-05-05T08:07:46.978Z,5.65
2023-05-05T08:10:34.091Z,5.38
2023-05-05T08:13:21.166Z,4.57
2023-05-05T08:16:09.039Z,6.00
2023-05-05T08:18:56.284Z,6.00
2023-05-05T08:21:43.357Z,6.55
2023-05-05T08:24:30.808Z,6.78
2023-05-05T08:27:17.848Z,7.55
2023-05-05T08:30:05.612Z,7.45
2023-05-05T08:32:52.756Z,7.78
2023-05-05T08:35:39.952Z,8.40
2023-05-05T08:38:27.141Z,8.50
2023-05-05T08:41:17.968Z,7.60
2023-05-05T08:44:05.053Z,8.27
2023-05-05T08:46:53.106Z,7.70
2023-05-05T08:49:45.773Z,8.43
2023-05-05T08:52:44.002Z,7.47
2023-05-05T08:55:35.279Z,6.50
2023-05-05T08:58:23.582Z,6.70
2023-05-05T09:01:11.440Z,7.32
2023-05-05T09:03:59.606Z,7.15
2023-05-05T09:06:46.742Z,6.35
2023-05-05T09:09:34.146Z,6.65
2023-05-05T09:12:22.320Z,6.32
2023-05-05T09:15:11.604Z,6.47
2023-05-05T09:17:59.880Z,6.55
2023-05-05T09:20:47.036Z,6.45
2023-05-05T09:23:34.085Z,6.93
2023-05-05T09:26:21.275Z,7.20
2023-05-05T09:29:08.342Z,7.57
2023-05-05T09:32:05.496Z,7.07
2023-05-05T09:35:01.852Z,7.35
2023-05-05T09:37:48.947Z,7.38
2023-05-05T09:40:46.615Z,7.40
2023-05-05T09:43:51.852Z,6.68
2023-05-05T09:46:49.139Z,6.20
2023-05-05T09:49:38.375Z,7.20
2023-05-05T09:52:25.611Z,7.32
2023-05-05T09:55:19.003Z,7.05
2023-05-05T09:58:18.412Z,6.40
2023-05-05T10:01:05.770Z,7.97
2023-05-05T10:03:52.834Z,7.75
2023-05-05T10:06:44.220Z,7.18
2023-05-05T10:09:34.087Z,6.95
2023-05-05T10:12:21.508Z,7.72
2023-05-05T10:15:10.155Z,7.45
2023-05-05T10:18:07.683Z,7.25
2023-05-05T10:20:57.828Z,7.30
2023-05-05T10:24:02.222Z,8.40
2023-05-05T10:26:51.889Z,7.50
2023-05-05T10:29:54.951Z,7.25
2023-05-05T10:32:57.366Z,9.75
2023-05-05T10:35:59.530Z,7.22
2023-05-05T10:38:46.673Z,6.57
2023-05-05T10:41:34.822Z,7.10
2023-05-05T10:44:22.960Z,6.45
2023-05-05T10:47:10.860Z,6.32
2023-05-05T10:50:07.356Z,6.45
2023-05-05T10:53:19.299Z,6.63
2023-05-05T10:56:40.219Z,6.40
2023-05-05T10:59:39.179Z,5.53
2023-05-05T11:02:28.938Z,6.93
2023-05-05T11:05:23.336Z,6.85
2023-05-05T11:08:26.995Z,5.70
2023-05-05T11:11:14.279Z,6.80
2023-05-05T11:14:22.277Z,6.93
2023-05-05T11:17:48.016Z,6.70
2023-05-05T11:20:40.803Z,7.00
2023-05-05T11:23:28.702Z,6.97
2023-05-05T11:26:17.587Z,7.05
2023-05-05T11:29:05.273Z,6.95
2023-05-05T11:32:11.585Z,6.38
2023-05-05T11:34:58.687Z,8.68
2023-05-05T11:37:46.352Z,7.47
2023-05-05T11:40:36.768Z,9.13
2023-05-05T11:43:23.833Z,8.20
2023-05-05T11:46:12.354Z,9.23
2023-05-05T11:48:59.406Z,9.60
2023-05-05T11:51:59.614Z,10.80
2023-05-05T11:54:48.569Z,11.07
2023-05-05T11:57:35.610Z,10.48
2023-05-05T12:00:32.930Z,8.95
2023-05-05T12:03:20.141Z,11.55
2023-05-05T12:06:08.606Z,11.00
2023-05-05T12:08:55.830Z,11.23
2023-05-05T12:11:53.309Z,11.57
2023-05-05T12:14:54.130Z,11.45
2023-05-05T12:17:44.853Z,11.88
2023-05-05T12:20:33.432Z,16.83
2023-05-05T12:23:21.128Z,11.35
2023-05-05T12:26:08.890Z,12.02
2023-05-05T12:28:59.547Z,12.55
2023-05-05T12:31:46.614Z,13.18
2023-05-05T12:34:33.814Z,11.50
2023-05-05T12:37:22.509Z,13.63
2023-05-05T12:40:42.188Z,13.68
2023-05-05T12:43:33.869Z,12.48
2023-05-05T12:46:21.070Z,11.68
2023-05-05T12:49:09.624Z,12.80
2023-05-05T12:51:57.151Z,11.85
2023-05-05T12:54:58.584Z,11.70
2023-05-05T12:58:04.728Z,12.02
2023-05-05T13:01:10.948Z,12.15
2023-05-05T13:04:13.886Z,11.50
2023-05-05T13:07:13.752Z,13.65
2023-05-05T13:10:09.774Z,13.98
2023-05-05T13:12:57.832Z,12.68
2023-05-05T13:15:44.989Z,11.07
2023-05-05T13:18:32.048Z,9.35
2023-05-05T13:21:19.330Z,8.82
2023-05-05T13:24:21.328Z,9.80
2023-05-05T13:27:12.902Z,8.73
2023-05-05T13:30:00.188Z,8.00
2023-05-05T13:32:47.236Z,8.32
2023-05-05T13:35:34.281Z,7.93
2023-05-05T13:38:21.484Z,7.78
2023-05-05T13:41:08.499Z,7.00
2023-05-05T13:43:56.457Z,7.03
2023-05-05T13:46:43.537Z,7.00
2023-05-05T13:49:30.609Z,6.80
2023-05-05T13:52:18.097Z,7.03
2023-05-05T13:55:05.712Z,6.90
2023-05-05T13:57:52.785Z,7.50
2023-05-05T14:00:40.423Z,6.85
2023-05-05T14:03:27.486Z,5.97
2023-05-05T14:06:14.612Z,6.82
2023-05-05T14:09:01.701Z,7.07
2023-05-05T14:11:48.719Z,16.35
2023-05-05T14:14:36.017Z,9.15
2023-05-05T14:17:23.154Z,8.18
2023-05-05T14:20:10.823Z,7.85
2023-05-05T14:22:57.880Z,8.60
2023-05-05T14:25:44.882Z,9.48
2023-05-05T14:28:31.955Z,9.05
2023-05-05T14:31:18.931Z,9.27
2023-05-05T14:34:05.944Z,9.82
2023-05-05T14:36:52.918Z,9.45
2023-05-05T14:39:39.930Z,9.95
2023-05-05T14:42:27.030Z,11.60
2023-05-05T14:45:14.053Z,10.50
2023-05-05T14:48:01.048Z,9.13
2023-05-05T14:50:48.747Z,9.50
2023-05-05T14:53:35.846Z,10.55
2023-05-05T14:56:24.304Z,10.80
2023-05-05T14:59:11.319Z,11.57
2023-05-05T15:01:58.457Z,12.35
2023-05-05T15:04:45.853Z,14.15
2023-05-05T15:07:33.751Z,15.88
2023-05-05T15:10:22.056Z,18.65
2023-05-05T15:13:09.404Z,20.00
2023-05-05T15:15:56.511Z,18.92
2023-05-05T15:18:43.610Z,19.88
2023-05-05T15:21:31.759Z,21.23
2023-05-05T15:24:19.747Z,20.55
2023-05-05T15:27:07.051Z,20.35
2023-05-05T15:29:55.181Z,21.48
2023-05-05T15:32:42.864Z,22.77
2023-05-05T15:35:30.023Z,29.23
2023-05-05T15:38:16.999Z,23.00
2023-05-05T15:41:06.956Z,28.15
2023-05-05T15:43:53.943Z,15.60
2023-05-05T15:46:41.145Z,11.20
2023-05-05T15:49:28.161Z,8.00
2023-05-05T15:52:15.298Z,6.57
2023-05-05T15:55:02.255Z,5.85
2023-05-05T15:57:49.303Z,6.07
2023-05-05T16:00:36.364Z,7.38
2023-05-05T16:03:23.463Z,6.30
2023-05-05T16:06:13.672Z,6.90
2023-05-05T16:09:00.698Z,7.97
2023-05-05T16:11:48.049Z,12.80
2023-05-05T16:14:35.064Z,9.50
2023-05-05T16:17:22.797Z,9.23
2023-05-05T16:20:10.674Z,10.05
2023-05-05T16:22:57.701Z,8.80
2023-05-05T16:25:44.835Z,8.57
2023-05-05T16:28:34.092Z,7.38
2023-05-05T16:31:21.232Z,8.18
2023-05-05T16:34:08.403Z,8.48
2023-05-05T16:36:55.999Z,8.20
2023-05-05T16:39:43.102Z,7.78
2023-05-05T16:42:30.134Z,7.10
2023-05-05T16:45:17.175Z,7.00
2023-05-05T16:48:05.627Z,7.13
2023-05-05T16:50:56.486Z,6.90
2023-05-05T16:53:43.539Z,7.70
2023-05-05T16:56:30.704Z,8.00
2023-05-05T16:59:19.139Z,7.28
2023-05-05T17:02:06.187Z,7.03
2023-05-05T17:04:53.320Z,7.25
2023-05-05T17:07:40.605Z,8.00
2023-05-05T17:10:27.632Z,7.38
2023-05-05T17:13:15.021Z,7.47
2023-05-05T17:16:02.134Z,7.18
2023-05-05T17:18:49.143Z,7.18
2023-05-05T17:21:36.169Z,7.30
2023-05-05T17:24:23.988Z,7.30
2023-05-05T17:27:11.204Z,7.60
2023-05-05T17:29:58.606Z,7.40
2023-05-05T17:32:46.172Z,6.35
2023-05-05T17:35:33.213Z,6.47
2023-05-05T17:38:20.229Z,6.60
2023-05-05T17:41:07.461Z,6.10
2023-05-05T17:43:54.538Z,6.72
2023-05-05T17:46:41.855Z,7.00
2023-05-05T17:49:28.900Z,6.63
2023-05-05T17:52:15.930Z,7.20
2023-05-05T17:55:03.018Z,6.18
2023-05-05T17:57:50.204Z,6.40
2023-05-05T18:00:37.355Z,6.28
2023-05-05T18:03:24.657Z,6.35
2023-05-05T18:06:11.938Z,7.00
2023-05-05T18:08:58.989Z,7.22
2023-05-05T18:11:46.054Z,6.13
2023-05-05T18:14:33.332Z,6.30
2023-05-05T18:17:21.108Z,6.22
2023-05-05T18:20:08.744Z,6.93
2023-05-05T18:22:55.876Z,6.90
2023-05-05T18:25:42.897Z,7.18
2023-05-05T18:28:29.919Z,7.28
2023-05-05T18:31:16.978Z,6.10
2023-05-05T18:34:04.004Z,7.38
2023-05-05T18:36:53.458Z,6.63
2023-05-05T18:39:42.665Z,6.65
2023-05-05T18:42:31.065Z,6.85
2023-05-05T18:45:18.097Z,6.43
2023-05-05T18:48:05.605Z,7.18
2023-05-05T18:50:52.886Z,7.03
2023-05-05T18:53:39.883Z,6.90
2023-05-05T18:56:27.044Z,8.00
2023-05-05T18:59:14.098Z,8.27
2023-05-05T19:02:02.260Z,7.50
2023-05-05T19:04:49.329Z,6.95
2023-05-05T19:07:36.652Z,6.82
2023-05-05T19:10:23.688Z,7.18
2023-05-05T19:13:11.301Z,7.85
2023-05-05T19:15:58.390Z,7.15
2023-05-05T19:18:45.516Z,7.03
2023-05-05T19:21:32.490Z,7.22
2023-05-05T19:24:19.551Z,6.15
2023-05-05T19:27:08.038Z,5.85
2023-05-05T19:29:55.306Z,6.53
2023-05-05T19:32:42.497Z,6.00
2023-05-05T19:35:31.145Z,5.30
2023-05-05T19:38:18.178Z,5.15
2023-05-05T19:41:05.350Z,5.70
2023-05-05T19:43:52.637Z,5.68
2023-05-05T19:46:39.732Z,5.60
2023-05-05T19:49:26.964Z,5.30
2023-05-05T19:52:14.101Z,5.93
2023-05-05T19:55:01.499Z,6.10
2023-05-05T19:57:48.542Z,6.65
2023-05-05T20:00:35.989Z,7.40
2023-05-05T20:03:23.099Z,8.43
2023-05-05T20:06:10.171Z,8.07
2023-05-05T20:08:57.284Z,7.65
2023-05-05T20:11:44.426Z,7.60
2023-05-05T20:14:31.498Z,8.38
2023-05-05T20:17:20.158Z,9.25
2023-05-05T20:20:07.907Z,8.65
2023-05-05T20:22:54.947Z,8.95
2023-05-05T20:25:41.988Z,9.75
2023-05-05T20:28:31.409Z,10.23
2023-05-05T20:31:18.556Z,12.98
2023-05-05T20:34:06.006Z,10.88
2023-05-05T20:36:54.103Z,11.57
2023-05-05T20:39:42.239Z,11.70
2023-05-05T20:42:29.677Z,12.20
2023-05-05T20:45:16.930Z,12.43
2023-05-05T20:48:05.545Z,12.48
2023-05-05T20:50:52.811Z,12.63
2023-05-05T20:53:39.901Z,12.98
2023-05-05T20:56:26.970Z,13.93
2023-05-05T20:59:13.972Z,15.35
2023-05-05T21:02:01.061Z,15.25
2023-05-05T21:04:48.154Z,14.98
2023-05-05T21:07:35.260Z,14.35
2023-05-05T21:10:22.364Z,13.77
2023-05-05T21:13:09.479Z,13.75
2023-05-05T21:15:56.676Z,14.60
2023-05-05T21:18:46.619Z,14.05
2023-05-05T21:21:33.850Z,15.52
2023-05-05T21:24:21.034Z,16.02
2023-05-05T21:27:08.018Z,14.93
2023-05-05T21:29:54.972Z,14.90
2023-05-05T21:32:42.207Z,15.18
2023-05-05T21:35:29.262Z,14.48
2023-05-05T21:38:16.601Z,13.93
2023-05-05T21:41:03.686Z,15.57
2023-05-05T21:43:50.761Z,15.77
2023-05-05T21:46:37.926Z,16.45
2023-05-05T21:49:24.973Z,16.15
2023-05-05T21:52:12.069Z,16.00
2023-05-05T21:54:59.111Z,17.55
2023-05-05T21:57:46.221Z,17.00
2023-05-05T22:00:33.295Z,17.67
2023-05-05T22:03:20.789Z,19.23
2023-05-05T22:06:07.929Z,19.30
2023-05-05T22:08:56.585Z,20.33
2023-05-05T22:11:43.705Z,19.85
2023-05-05T22:14:30.747Z,20.35
2023-05-05T22:17:18.098Z,21.00
2023-05-05T22:20:05.827Z,20.67
2023-05-05T22:22:52.943Z,19.90
2023-05-05T22:25:40.131Z,20.40
2023-05-05T22:28:27.720Z,18.50
2023-05-05T22:31:15.040Z,19.15
2023-05-05T22:34:02.437Z,19.63
2023-05-05T22:36:49.873Z,20.58
2023-05-05T22:39:36.926Z,19.35
2023-05-05T22:42:24.056Z,21.48
2023-05-05T22:45:11.805Z,19.77
2023-05-05T22:47:59.321Z,21.33
2023-05-05T22:50:46.566Z,19.35
2023-05-05T22:53:33.809Z,19.27
2023-05-05T22:56:20.990Z,17.77
2023-05-05T22:59:08.131Z,18.60
2023-05-05T23:01:55.753Z,17.42
2023-05-05T23:04:46.253Z,16.50
2023-05-05T23:07:33.546Z,15.38
2023-05-05T23:10:20.613Z,14.88
2023-05-05T23:13:07.767Z,15.77
2023-05-05T23:15:54.887Z,16.45
2023-05-05T23:18:42.020Z,14.45
2023-05-05T23:21:29.368Z,14.73
2023-05-05T23:24:19.122Z,13.63
2023-05-05T23:27:06.127Z,12.20
2023-05-05T23:29:53.289Z,12.30
2023-05-05T23:32:40.436Z,11.88
2023-05-05T23:35:27.725Z,11.57
2023-05-05T23:38:14.786Z,11.95
2023-05-05T23:41:01.981Z,12.80
2023-05-05T23:43:49.045Z,12.57
2023-05-05T23:46:36.296Z,11.95
2023-05-05T23:49:24.879Z,12.20
2023-05-05T23:52:12.615Z,10.40
2023-05-05T23:55:00.212Z,11.32
2023-05-05T23:57:47.288Z,10.60
